createdAt,value
2019-04-29T00:01:53.733Z,5.33
2019-04-29T00:04:58.898Z,3.43
2019-04-29T00:08:04.120Z,3.93
2019-04-29T00:11:09.367Z,7.33
2019-04-29T00:14:14.711Z,6.50
2019-04-29T00:17:29.671Z,6.00
2019-04-29T00:20:42.313Z,6.47
2019-04-29T00:23:47.466Z,5.80
2019-04-29T00:26:52.790Z,7.13
2019-04-29T00:29:57.978Z,7.57
2019-04-29T00:33:03.319Z,5.37
2019-04-29T00:36:08.482Z,8.00
2019-04-29T00:39:32.426Z,6.73
2019-04-29T00:43:02.473Z,4.53
2019-04-29T00:46:08.000Z,6.80
2019-04-29T00:49:13.277Z,8.03
2019-04-29T00:52:18.524Z,4.47
2019-04-29T00:55:27.096Z,5.33
2019-04-29T00:58:32.298Z,6.93
2019-04-29T01:01:37.411Z,7.90
2019-04-29T01:04:42.509Z,4.87
2019-04-29T01:07:47.679Z,4.20
2019-04-29T01:10:52.991Z,7.23
2019-04-29T01:13:58.119Z,4.10
2019-04-29T01:17:03.251Z,5.73
2019-04-29T01:20:08.941Z,6.93
2019-04-29T01:23:14.101Z,5.43
2019-04-29T01:26:36.919Z,8.90
2019-04-29T01:29:42.212Z,4.83
2019-04-29T01:32:47.366Z,5.77
2019-04-29T01:35:57.885Z,6.10
2019-04-29T01:39:05.645Z,6.30
2019-04-29T01:42:21.948Z,4.33
2019-04-29T01:45:27.113Z,5.30
2019-04-29T01:48:32.306Z,7.20
2019-04-29T01:51:37.432Z,5.97
2019-04-29T01:54:42.578Z,5.80
2019-04-29T01:57:47.744Z,6.03
2019-04-29T02:00:52.893Z,8.63
2019-04-29T02:03:58.054Z,6.63
2019-04-29T02:07:03.247Z,7.00
2019-04-29T02:10:19.393Z,4.17
2019-04-29T02:13:24.508Z,6.27
2019-04-29T02:16:29.689Z,8.47
2019-04-29T02:19:34.826Z,5.07
2019-04-29T02:22:45.282Z,5.80
2019-04-29T02:25:50.532Z,5.23
2019-04-29T02:28:55.695Z,7.87
2019-04-29T02:32:00.945Z,4.70
2019-04-29T02:35:06.177Z,4.53
2019-04-29T02:38:17.787Z,6.20
2019-04-29T02:41:35.008Z,7.30
2019-04-29T02:44:40.172Z,4.20
2019-04-29T02:47:45.393Z,6.00
2019-04-29T02:50:50.517Z,4.63
2019-04-29T02:53:55.737Z,5.60
2019-04-29T02:57:06.212Z,6.13
2019-04-29T03:00:33.727Z,6.33
2019-04-29T03:04:03.716Z,6.63
2019-04-29T03:07:08.974Z,5.43
2019-04-29T03:10:14.382Z,6.43
2019-04-29T03:13:19.469Z,5.07
2019-04-29T03:16:24.627Z,7.50
2019-04-29T03:19:34.425Z,5.13
2019-04-29T03:22:40.674Z,5.83
2019-04-29T03:25:45.834Z,5.03
2019-04-29T03:28:51.184Z,4.93
2019-04-29T03:31:57.845Z,6.57
2019-04-29T03:35:03.081Z,6.27
2019-04-29T03:38:08.268Z,4.83
2019-04-29T03:41:13.440Z,5.83
2019-04-29T03:44:18.655Z,6.03
2019-04-29T03:47:23.803Z,4.17
2019-04-29T03:50:29.062Z,7.17
2019-04-29T03:53:34.276Z,4.37
2019-04-29T03:56:40.087Z,4.43
2019-04-29T03:59:45.239Z,4.97
2019-04-29T04:02:59.187Z,4.97
2019-04-29T04:06:29.612Z,5.83
2019-04-29T04:09:35.781Z,6.70
2019-04-29T04:12:41.153Z,6.43
2019-04-29T04:15:46.404Z,3.87
2019-04-29T04:18:57.062Z,5.97
2019-04-29T04:22:02.317Z,4.23
2019-04-29T04:25:07.538Z,3.80
2019-04-29T04:28:12.667Z,9.37
2019-04-29T04:31:17.801Z,4.03
2019-04-29T04:34:23.078Z,5.60
2019-04-29T04:37:28.211Z,6.20
2019-04-29T04:40:40.791Z,4.27
2019-04-29T04:43:46.042Z,5.83
2019-04-29T04:46:51.166Z,6.17
2019-04-29T04:49:56.344Z,5.83
2019-04-29T04:53:03.138Z,4.70
2019-04-29T04:56:08.287Z,4.83
2019-04-29T04:59:13.397Z,6.30
2019-04-29T05:02:18.521Z,9.73
2019-04-29T05:05:23.708Z,4.33
2019-04-29T05:08:28.899Z,7.20
2019-04-29T05:11:34.030Z,3.93
2019-04-29T05:14:39.218Z,3.27
2019-04-29T05:17:44.473Z,3.77
2019-04-29T05:20:49.687Z,5.03
2019-04-29T05:23:54.799Z,6.10
2019-04-29T05:26:59.913Z,4.63
2019-04-29T05:30:05.775Z,5.23
2019-04-29T05:33:10.909Z,4.50
2019-04-29T05:36:29.751Z,6.03
2019-04-29T05:39:37.635Z,6.60
2019-04-29T05:42:42.806Z,5.03
2019-04-29T05:45:54.959Z,4.20
2019-04-29T05:49:02.333Z,5.07
2019-04-29T05:52:15.255Z,4.90
2019-04-29T05:55:20.533Z,3.77
2019-04-29T05:58:25.643Z,4.13
2019-04-29T06:01:31.534Z,4.60
2019-04-29T06:04:36.691Z,5.17
2019-04-29T06:07:41.910Z,5.30
2019-04-29T06:10:47.080Z,6.40
2019-04-29T06:13:52.239Z,5.27
2019-04-29T06:17:02.463Z,5.00
2019-04-29T06:20:04.593Z,5.93
2019-04-29T06:23:09.724Z,3.63
2019-04-29T06:26:15.930Z,7.43
2019-04-29T06:29:21.069Z,7.07
2019-04-29T06:32:26.469Z,4.70
2019-04-29T06:35:31.657Z,4.00
2019-04-29T06:38:36.893Z,5.87
2019-04-29T06:41:45.513Z,5.57
2019-04-29T06:44:50.498Z,6.33
2019-04-29T06:47:55.593Z,6.83
2019-04-29T06:51:00.728Z,4.87
2019-04-29T06:54:05.932Z,6.57
2019-04-29T06:57:11.161Z,4.50
2019-04-29T07:00:21.682Z,4.83
2019-04-29T07:03:25.541Z,7.10
2019-04-29T07:06:30.059Z,4.00
2019-04-29T07:09:35.161Z,4.10
2019-04-29T07:12:42.791Z,8.07
2019-04-29T07:15:48.903Z,4.13
2019-04-29T07:18:54.173Z,5.00
2019-04-29T07:21:59.383Z,7.20
2019-04-29T07:25:04.725Z,6.93
2019-04-29T07:28:13.751Z,6.07
2019-04-29T07:31:17.890Z,4.20
2019-04-29T07:34:23.025Z,5.93
2019-04-29T07:37:29.889Z,6.07
2019-04-29T07:40:38.702Z,6.07
2019-04-29T07:43:43.044Z,5.87
2019-04-29T07:46:56.769Z,4.73
2019-04-29T07:49:58.876Z,6.03
2019-04-29T07:53:04.036Z,4.73
2019-04-29T07:56:09.280Z,6.73
2019-04-29T07:59:14.435Z,7.03
2019-04-29T08:02:19.540Z,6.70
2019-04-29T08:05:24.854Z,6.40
2019-04-29T08:08:32.064Z,9.20
2019-04-29T08:11:37.676Z,7.77
2019-04-29T08:14:43.807Z,5.70
2019-04-29T08:17:51.393Z,7.67
2019-04-29T08:20:55.807Z,6.27
2019-04-29T08:24:00.953Z,5.60
2019-04-29T08:27:06.120Z,7.33
2019-04-29T08:30:12.799Z,5.00
2019-04-29T08:33:18.140Z,6.80
2019-04-29T08:36:23.290Z,6.87
2019-04-29T08:39:29.323Z,5.63
2019-04-29T08:42:41.853Z,4.03
2019-04-29T08:45:49.502Z,6.20
2019-04-29T08:48:54.709Z,5.47
2019-04-29T08:52:00.880Z,4.47
2019-04-29T08:55:06.570Z,4.20
2019-04-29T08:58:12.911Z,4.83
2019-04-29T09:01:18.102Z,5.40
2019-04-29T09:04:23.265Z,7.37
2019-04-29T09:07:28.399Z,4.47
2019-04-29T09:10:36.774Z,5.17
2019-04-29T09:13:40.314Z,5.33
2019-04-29T09:16:45.491Z,4.30
2019-04-29T09:19:50.775Z,6.27
2019-04-29T09:23:00.520Z,4.87
2019-04-29T09:26:24.715Z,5.50
2019-04-29T09:29:36.614Z,6.60
2019-04-29T09:32:41.911Z,3.67
2019-04-29T09:35:47.098Z,6.97
2019-04-29T09:38:52.238Z,8.00
2019-04-29T09:42:19.420Z,6.93
2019-04-29T09:45:30.988Z,6.10
2019-04-29T09:48:36.175Z,6.17
2019-04-29T09:51:41.405Z,4.30
2019-04-29T09:54:46.588Z,5.73
2019-04-29T09:57:51.899Z,6.80
2019-04-29T10:01:21.977Z,6.10
2019-04-29T10:04:56.446Z,5.60
2019-04-29T10:07:56.066Z,3.90
2019-04-29T10:11:01.259Z,4.63
2019-04-29T10:14:06.570Z,5.83
2019-04-29T10:17:36.743Z,4.60
2019-04-29T10:20:54.259Z,6.00
2019-04-29T10:23:59.472Z,4.37
2019-04-29T10:27:07.354Z,5.83
2019-04-29T10:30:13.898Z,5.80
2019-04-29T10:33:22.819Z,6.67
2019-04-29T10:36:26.539Z,5.07
2019-04-29T10:39:49.455Z,4.97
2019-04-29T10:43:17.889Z,7.23
2019-04-29T10:46:40.686Z,3.87
2019-04-29T10:49:49.942Z,4.77
2019-04-29T10:52:56.136Z,6.00
2019-04-29T10:56:05.637Z,7.23
2019-04-29T10:59:11.168Z,6.97
2019-04-29T11:02:34.574Z,5.60
2019-04-29T11:05:59.975Z,6.27
2019-04-29T11:09:00.352Z,5.77
2019-04-29T11:12:09.951Z,4.43
2019-04-29T11:15:16.786Z,6.40
2019-04-29T11:18:23.214Z,6.97
2019-04-29T11:21:29.356Z,7.50
2019-04-29T11:24:50.079Z,6.07
2019-04-29T11:27:56.298Z,6.57
2019-04-29T11:31:02.614Z,7.30
2019-04-29T11:34:33.537Z,8.70
2019-04-29T11:37:38.867Z,5.23
2019-04-29T11:40:44.555Z,6.87
2019-04-29T11:43:51.093Z,6.00
2019-04-29T11:46:56.755Z,6.47
2019-04-29T11:50:13.721Z,5.27
2019-04-29T11:53:18.867Z,7.37
2019-04-29T11:56:24.142Z,6.40
2019-04-29T11:59:40.050Z,6.53
2019-04-29T12:02:54.308Z,5.07
2019-04-29T12:06:02.266Z,6.60
2019-04-29T12:09:08.366Z,4.27
2019-04-29T12:12:15.199Z,5.47
2019-04-29T12:15:37.161Z,4.63
2019-04-29T12:18:49.628Z,6.67
2019-04-29T12:21:55.301Z,5.90
2019-04-29T12:25:00.510Z,6.37
2019-04-29T12:28:18.808Z,5.90
2019-04-29T12:31:20.234Z,6.53
2019-04-29T12:34:48.461Z,5.57
2019-04-29T12:38:11.433Z,6.83
2019-04-29T12:41:47.678Z,5.70
2019-04-29T12:45:03.610Z,6.60
2019-04-29T12:48:09.105Z,7.23
2019-04-29T12:51:16.958Z,8.13
2019-04-29T12:54:21.153Z,6.17
2019-04-29T12:57:26.352Z,8.60
2019-04-29T13:00:46.343Z,6.30
2019-04-29T13:04:02.067Z,7.77
2019-04-29T13:07:24.972Z,8.20
2019-04-29T13:10:44.223Z,5.00
2019-04-29T13:13:51.251Z,4.00
2019-04-29T13:17:14.444Z,10.57
2019-04-29T13:20:15.123Z,13.50
2019-04-29T13:23:33.209Z,8.40
2019-04-29T13:26:28.611Z,6.53
2019-04-29T13:29:36.202Z,8.17
2019-04-29T13:32:41.123Z,6.70
2019-04-29T13:35:48.363Z,7.43
2019-04-29T13:38:53.387Z,7.60
2019-04-29T13:42:02.852Z,4.33
2019-04-29T13:45:12.990Z,7.50
2019-04-29T13:48:25.978Z,9.70
2019-04-29T13:51:35.676Z,8.47
2019-04-29T13:54:42.395Z,6.17
2019-04-29T13:57:49.111Z,9.47
2019-04-29T14:01:03.652Z,9.77
2019-04-29T14:04:24.180Z,7.13
2019-04-29T14:07:26.686Z,10.40
2019-04-29T14:10:34.719Z,9.30
2019-04-29T14:13:43.632Z,6.77
2019-04-29T14:16:47.547Z,11.57
2019-04-29T14:19:56.953Z,8.23
2019-04-29T14:23:00.846Z,8.87
2019-04-29T14:26:06.050Z,6.37
2019-04-29T14:29:11.276Z,5.00
2019-04-29T14:32:18.176Z,7.83
2019-04-29T14:35:48.347Z,5.00
2019-04-29T14:38:53.610Z,7.20
2019-04-29T14:42:02.459Z,7.87
2019-04-29T14:45:26.775Z,6.70
2019-04-29T14:48:42.738Z,7.07
2019-04-29T14:51:42.884Z,7.60
2019-04-29T14:54:48.054Z,6.20
2019-04-29T14:57:53.220Z,8.57
2019-04-29T15:01:16.134Z,6.87
2019-04-29T15:04:23.716Z,7.83
2019-04-29T15:07:36.032Z,6.80
2019-04-29T15:10:42.056Z,9.20
2019-04-29T15:13:49.139Z,7.80
2019-04-29T15:17:00.646Z,7.20
2019-04-29T15:20:15.445Z,4.93
2019-04-29T15:23:28.275Z,5.00
2019-04-29T15:26:27.465Z,7.20
2019-04-29T15:29:33.563Z,5.87
2019-04-29T15:32:38.805Z,8.73
2019-04-29T15:35:44.106Z,8.30
2019-04-29T15:39:07.932Z,7.77
2019-04-29T15:41:57.252Z,5.17
2019-04-29T15:45:02.437Z,6.33
2019-04-29T15:48:10.506Z,5.73
2019-04-29T15:51:15.850Z,8.10
2019-04-29T15:54:21.022Z,6.17
2019-04-29T15:57:26.480Z,6.67
2019-04-29T16:00:37.932Z,8.73
2019-04-29T16:03:38.944Z,9.03
2019-04-29T16:07:02.453Z,7.20
2019-04-29T16:10:32.888Z,5.43
2019-04-29T16:13:38.109Z,9.00
2019-04-29T16:16:43.277Z,10.07
2019-04-29T16:19:48.426Z,11.37
2019-04-29T16:22:54.084Z,7.23
2019-04-29T16:26:00.563Z,10.73
2019-04-29T16:29:12.483Z,11.57
2019-04-29T16:32:16.668Z,8.80
2019-04-29T16:35:23.639Z,9.10
2019-04-29T16:38:28.740Z,9.27
2019-04-29T16:42:02.189Z,13.47
2019-04-29T16:45:12.228Z,9.07
2019-04-29T16:48:16.145Z,10.83
2019-04-29T16:51:21.346Z,9.30
2019-04-29T16:54:28.503Z,10.77
2019-04-29T16:57:33.511Z,9.23
2019-04-29T17:00:39.965Z,9.43
2019-04-29T17:03:45.236Z,8.17
2019-04-29T17:10:20.343Z,11.10
2019-04-29T17:13:25.680Z,10.67
2019-04-29T17:16:30.844Z,9.40
2019-04-29T17:19:35.943Z,9.40
2019-04-29T17:22:43.215Z,9.53
2019-04-29T17:25:47.959Z,10.77
2019-04-29T17:29:37.273Z,9.33
2019-04-29T17:32:54.105Z,9.93
2019-04-29T17:35:15.990Z,8.20
2019-04-29T17:35:59.743Z,9.13
2019-04-29T17:39:06.811Z,9.60
2019-04-29T17:42:12.855Z,9.83
2019-04-29T17:45:30.583Z,13.27
2019-04-29T17:48:38.374Z,10.53
2019-04-29T17:51:45.880Z,10.73
2019-04-29T17:54:55.051Z,10.10
2019-04-29T17:58:08.545Z,10.77
2019-04-29T18:01:28.953Z,10.83
2019-04-29T18:04:49.659Z,11.03
2019-04-29T18:08:23.901Z,10.70
2019-04-29T18:11:30.260Z,12.00
2019-04-29T18:14:40.322Z,11.33
2019-04-29T18:17:42.456Z,11.80
2019-04-29T18:21:19.206Z,10.87
2019-04-29T18:24:52.562Z,12.07
2019-04-29T18:28:00.323Z,10.87
2019-04-29T18:31:06.494Z,10.70
2019-04-29T18:34:11.693Z,10.43
2019-04-29T18:37:18.519Z,11.00
2019-04-29T18:40:25.742Z,10.70
2019-04-29T18:43:30.574Z,12.30
2019-04-29T18:46:35.792Z,10.40
2019-04-29T18:49:40.992Z,11.13
2019-04-29T18:52:46.179Z,11.37
2019-04-29T18:55:51.569Z,14.50
2019-04-29T18:58:56.710Z,14.97
2019-04-29T19:02:07.715Z,14.27
2019-04-29T19:05:20.004Z,16.90
2019-04-29T19:08:28.695Z,15.30
2019-04-29T19:11:32.873Z,13.47
2019-04-29T19:14:38.798Z,13.77
2019-04-29T19:17:46.580Z,13.20
2019-04-29T19:20:52.939Z,11.97
2019-04-29T19:24:00.685Z,11.70
2019-04-29T19:27:09.446Z,11.50
2019-04-29T19:30:14.280Z,11.63
2019-04-29T19:33:20.115Z,10.83
2019-04-29T19:36:25.320Z,10.13
2019-04-29T19:39:30.594Z,15.40
2019-04-29T19:42:39.642Z,10.83
2019-04-29T19:45:44.699Z,10.67
2019-04-29T19:48:49.645Z,10.60
2019-04-29T19:51:55.542Z,12.30
2019-04-29T19:55:01.550Z,13.13
2019-04-29T19:58:11.982Z,12.50
2019-04-29T20:01:26.556Z,13.93
2019-04-29T20:04:32.153Z,10.77
2019-04-29T20:07:42.367Z,10.23
2019-04-29T20:10:49.735Z,12.17
2019-04-29T20:14:02.087Z,15.37
2019-04-29T20:17:20.477Z,13.97
2019-04-29T20:20:50.886Z,11.73
2019-04-29T20:23:56.297Z,11.43
2019-04-29T20:27:01.612Z,10.80
2019-04-29T20:30:15.988Z,11.60
2019-04-29T20:33:16.114Z,14.20
2019-04-29T20:36:33.068Z,12.67
2019-04-29T20:39:28.255Z,12.73
2019-04-29T20:42:35.651Z,12.90
2019-04-29T20:45:40.689Z,14.93
2019-04-29T20:48:50.015Z,13.13
2019-04-29T20:51:56.692Z,13.13
2019-04-29T20:55:02.787Z,13.93
2019-04-29T20:58:08.249Z,12.50
2019-04-29T21:01:19.993Z,13.00
2019-04-29T21:04:33.784Z,12.90
2019-04-29T21:07:32.294Z,14.70
2019-04-29T21:10:37.829Z,14.07
2019-04-29T21:13:55.974Z,16.13
2019-04-29T21:17:02.312Z,13.33
2019-04-29T21:20:05.557Z,14.50
2019-04-29T21:23:10.901Z,15.30
2019-04-29T21:26:16.065Z,13.53
2019-04-29T21:29:21.202Z,14.33
2019-04-29T21:32:30.501Z,15.80
2019-04-29T21:35:43.057Z,15.13
2019-04-29T21:39:07.258Z,15.07
2019-04-29T21:42:35.511Z,13.27
2019-04-29T21:45:39.816Z,14.50
2019-04-29T21:48:43.626Z,15.40
2019-04-29T21:51:49.922Z,13.23
2019-04-29T21:54:57.005Z,16.60
2019-04-29T21:58:01.945Z,16.43
2019-04-29T22:01:07.920Z,15.87
2019-04-29T22:04:13.373Z,15.77
2019-04-29T22:07:19.103Z,20.87
2019-04-29T22:10:28.876Z,15.30
2019-04-29T22:13:35.675Z,15.60
2019-04-29T22:16:38.268Z,16.43
2019-04-29T22:19:45.033Z,16.37
2019-04-29T22:22:50.365Z,16.60
2019-04-29T22:25:56.740Z,14.97
2019-04-29T22:29:03.525Z,14.53
2019-04-29T22:32:14.431Z,16.27
2019-04-29T22:35:16.563Z,15.57
2019-04-29T22:38:21.884Z,15.73
2019-04-29T22:41:48.757Z,17.50
2019-04-29T22:44:57.318Z,15.87
2019-04-29T22:48:12.155Z,17.43
2019-04-29T22:51:10.147Z,15.93
2019-04-29T22:54:17.640Z,17.70
2019-04-29T22:57:22.900Z,17.60
2019-04-29T23:00:32.693Z,16.27
2019-04-29T23:03:38.731Z,17.30
2019-04-29T23:06:47.916Z,17.23
2019-04-29T23:09:51.049Z,19.27
2019-04-29T23:12:57.531Z,19.37
2019-04-29T23:16:03.855Z,17.73
2019-04-29T23:19:09.858Z,16.93
2019-04-29T23:22:29.059Z,18.77
2019-04-29T23:25:38.422Z,20.00
2019-04-29T23:28:45.651Z,18.33
2019-04-29T23:31:50.501Z,18.43
2019-04-29T23:34:57.272Z,17.83
2019-04-29T23:38:04.264Z,17.67
2019-04-29T23:41:09.388Z,16.40
2019-04-29T23:44:14.587Z,19.33
2019-04-29T23:47:19.858Z,17.27
2019-04-29T23:50:27.880Z,17.10
2019-04-29T23:53:31.859Z,15.53
2019-04-29T23:56:48.263Z,17.37
